Time;durP1;ratioP1;P1;durP2;ratioP2;P2;SDS_P1;SDS_P2;PMS_P1;PMS_P2;Temp;Humidity;BMP_temperature;BMP_pressure;BME280_temperature;BME280_humidity;BME280_pressure;Samples;Min_cycle;Max_cycle;Signal;HPM_P1;HPM_P2
2021/08/07 00:01:48;;;;;;;2.35;2.10;;;22.50;98.30;;;;;;5062580;28;20017;-76
2021/08/07 00:04:14;;;;;;;4.15;2.10;;;22.60;98.20;;;;;;5072979;28;20547;-76
2021/08/07 00:06:40;;;;;;;1.88;1.65;;;22.60;98.10;;;;;;5072798;28;20028;-76
2021/08/07 00:09:06;;;;;;;2.47;2.28;;;22.60;97.90;;;;;;5072794;28;20016;-76
2021/08/07 00:11:31;;;;;;;3.28;1.80;;;22.60;97.80;;;;;;5072930;28;20479;-76
2021/08/07 00:13:57;;;;;;;3.65;1.92;;;22.70;97.80;;;;;;5072580;28;20505;-76
2021/08/07 00:16:23;;;;;;;1.77;1.63;;;22.70;97.70;;;;;;5073009;28;20082;-76
2021/08/07 00:18:48;;;;;;;2.50;2.30;;;22.70;97.80;;;;;;5072334;28;20082;-76
2021/08/07 00:21:14;;;;;;;3.13;1.88;;;22.70;97.70;;;;;;5072479;28;20066;-76
2021/08/07 00:23:40;;;;;;;3.17;2.00;;;22.80;97.70;;;;;;5072795;28;20024;-76
2021/08/07 00:26:05;;;;;;;2.05;1.95;;;22.70;97.40;;;;;;5072596;28;20028;-76
2021/08/07 00:28:31;;;;;;;3.42;2.33;;;22.70;97.80;;;;;;5072644;28;20028;-76
2021/08/07 00:30:57;;;;;;;1.98;1.88;;;22.70;97.70;;;;;;5072748;28;20111;-76
2021/08/07 00:33:23;;;;;;;2.15;1.88;;;22.60;98.30;;;;;;5073241;28;20032;-76
2021/08/07 00:35:48;;;;;;;2.92;2.00;;;22.50;98.50;;;;;;5071024;28;20157;-76
2021/08/07 00:38:14;;;;;;;3.08;2.00;;;22.50;98.70;;;;;;5053108;28;20086;-76
2021/08/07 00:40:40;;;;;;;2.28;2.15;;;22.50;98.70;;;;;;5061114;28;20020;-76
2021/08/07 00:43:09;;;;;;;3.60;2.35;;;22.50;98.60;;;;;;5072783;28;20467;-76
2021/08/07 00:45:37;;;;;;;1.90;1.63;;;22.40;99.10;;;;;;5072723;28;20489;-76
2021/08/07 00:48:02;;;;;;;3.50;1.77;;;22.50;98.70;;;;;;5072578;28;20118;-76
2021/08/07 00:50:28;;;;;;;4.20;2.08;;;22.50;98.80;;;;;;5072635;28;20495;-76
2021/08/07 00:52:54;;;;;;;2.60;2.40;;;22.40;98.80;;;;;;5072402;28;20587;-76
2021/08/07 00:55:20;;;;;;;1.85;1.75;;;22.40;98.70;;;;;;5072479;28;20028;-76
2021/08/07 00:57:46;;;;;;;2.28;2.08;;;22.50;98.70;;;;;;5072526;28;20035;-76
2021/08/07 01:00:12;;;;;;;2.30;2.15;;;22.50;98.50;;;;;;5054303;28;20031;-76
2021/08/07 01:02:40;;;;;;;2.47;1.85;;;22.50;98.60;;;;;;5072569;28;20033;-76
2021/08/07 01:05:10;;;;;;;3.70;1.77;;;22.60;98.50;;;;;;5072465;28;20024;-75
2021/08/07 01:07:40;;;;;;;2.13;2.03;;;22.60;98.50;;;;;;5054212;28;20023;-76
2021/08/07 01:10:24;;;;;;;2.47;2.28;;;22.60;98.40;;;;;;5054352;28;20027;-76
2021/08/07 01:12:52;;;;;;;5.75;2.22;;;22.70;98.40;;;;;;5070751;28;20479;-76
2021/08/07 01:15:27;;;;;;;6.38;2.35;;;22.60;98.60;;;;;;5034397;28;20082;-76
2021/08/07 01:17:55;;;;;;;1.40;1.40;;;22.60;98.90;;;;;;5052404;28;20047;-75
2021/08/07 01:20:43;;;;;;;3.80;2.00;;;22.60;99.00;;;;;;5052020;28;20033;-76
2021/08/07 01:23:18;;;;;;;3.33;2.10;;;22.60;98.90;;;;;;5052251;28;20368;-76
2021/08/07 01:25:56;;;;;;;1.98;1.88;;;22.60;98.90;;;;;;5052215;28;20053;-76
2021/08/07 01:28:25;;;;;;;2.63;1.80;;;22.60;99.00;;;;;;5062215;28;20467;-76
2021/08/07 01:30:53;;;;;;;2.15;1.95;;;22.60;99.00;;;;;;5074577;28;20027;-75
2021/08/07 01:33:21;;;;;;;3.10;2.03;;;22.60;99.10;;;;;;5075972;28;20029;-76
2021/08/07 01:35:50;;;;;;;2.65;2.05;;;22.60;99.00;;;;;;5075556;28;20036;-76
2021/08/07 01:38:17;;;;;;;2.28;2.10;;;22.60;99.00;;;;;;5075284;28;20071;-76
2021/08/07 01:40:43;;;;;;;1.83;1.73;;;22.60;98.90;;;;;;5075826;28;20388;-76
2021/08/07 01:43:09;;;;;;;2.75;2.55;;;22.70;98.90;;;;;;5057412;28;20032;-76
2021/08/07 01:45:35;;;;;;;2.47;2.30;;;22.70;99.00;;;;;;5075266;28;20043;-76
2021/08/07 01:48:32;;;;;;;2.38;2.17;;;22.70;99.00;;;;;;5075597;28;20028;-75
2021/08/07 01:51:22;;;;;;;2.55;1.85;;;22.70;99.00;;;;;;5075379;28;20523;-76
2021/08/07 01:53:49;;;;;;;3.35;2.15;;;22.60;99.20;;;;;;5075083;28;20036;-76
2021/08/07 01:56:22;;;;;;;2.00;1.90;;;22.60;99.40;;;;;;5074910;28;20036;-76
2021/08/07 01:59:15;;;;;;;2.42;2.00;;;22.60;99.50;;;;;;5075643;28;20028;-76
2021/08/07 02:01:44;;;;;;;2.42;2.08;;;22.50;99.80;;;;;;5071696;28;20045;-76
2021/08/07 02:04:13;;;;;;;2.38;2.28;;;22.50;99.90;;;;;;5071841;28;20032;-76
2021/08/07 02:06:39;;;;;;;2.22;2.03;;;22.50;99.90;;;;;;5074557;28;20389;-76
2021/08/07 02:09:05;;;;;;;2.60;2.40;;;22.50;99.90;;;;;;5075251;28;20021;-76
2021/08/07 02:11:32;;;;;;;2.10;2.00;;;22.40;99.90;;;;;;5074870;28;20112;-76
2021/08/07 02:13:59;;;;;;;4.55;2.20;;;22.40;99.90;;;;;;5057275;28;20092;-76
2021/08/07 02:16:26;;;;;;;2.70;2.50;;;22.40;99.90;;;;;;5074674;28;20020;-77
2021/08/07 02:18:52;;;;;;;2.00;1.90;;;22.40;99.90;;;;;;5074875;28;20020;-76
2021/08/07 02:21:20;;;;;;;2.50;2.30;;;22.40;99.90;;;;;;5056851;28;20056;-76
2021/08/07 02:23:48;;;;;;;2.80;1.75;;;22.30;99.90;;;;;;5074921;28;20035;-76
2021/08/07 02:26:15;;;;;;;3.90;2.28;;;22.30;99.90;;;;;;5074868;28;20460;-76
2021/08/07 02:28:42;;;;;;;6.50;2.33;;;22.30;99.90;;;;;;5075086;28;20452;-76
2021/08/07 02:31:09;;;;;;;3.42;2.03;;;22.30;99.90;;;;;;5069578;28;20025;-76
2021/08/07 02:33:36;;;;;;;3.13;2.10;;;22.40;99.90;;;;;;5055153;28;20021;-76
2021/08/07 02:36:03;;;;;;;2.72;2.30;;;22.30;99.90;;;;;;5065923;28;20029;-76
2021/08/07 02:38:31;;;;;;;3.88;2.05;;;22.40;99.90;;;;;;5074968;28;20024;-76
2021/08/07 02:40:59;;;;;;;2.35;2.00;;;22.40;99.90;;;;;;5074448;28;20024;-76
2021/08/07 02:43:25;;;;;;;4.05;2.47;;;22.40;99.90;;;;;;5056915;28;20383;-76
2021/08/07 02:45:51;;;;;;;3.30;1.83;;;22.30;99.90;;;;;;5074727;28;20715;-76
2021/08/07 02:48:18;;;;;;;5.13;2.30;;;22.30;99.90;;;;;;5074699;28;20024;-76
2021/08/07 02:50:45;;;;;;;2.35;2.08;;;22.20;99.90;;;;;;5074580;28;20563;-77
2021/08/07 02:53:11;;;;;;;2.50;2.30;;;22.20;99.90;;;;;;5056413;28;20021;-76
2021/08/07 02:55:38;;;;;;;1.98;1.80;;;22.20;99.90;;;;;;5074459;28;20040;-76
2021/08/07 02:58:05;;;;;;;2.30;1.98;;;22.20;99.90;;;;;;5056541;28;20055;-76
2021/08/07 03:00:34;;;;;;;2.90;2.70;;;22.20;99.90;;;;;;5074377;28;20218;-76
2021/08/07 03:02:59;;;;;;;2.40;2.20;;;22.20;99.90;;;;;;5074089;28;20029;-76
2021/08/07 03:05:25;;;;;;;2.58;2.13;;;22.20;99.90;;;;;;5074308;28;20027;-76
2021/08/07 03:07:51;;;;;;;2.33;2.20;;;22.20;99.90;;;;;;5056123;28;20020;-76
2021/08/07 03:10:17;;;;;;;3.75;2.50;;;22.20;99.90;;;;;;5074099;28;20573;-76
2021/08/07 03:12:44;;;;;;;2.33;2.13;;;22.20;99.90;;;;;;5074337;28;20031;-76
2021/08/07 03:15:11;;;;;;;2.88;2.05;;;22.20;99.90;;;;;;5074345;28;20035;-76
2021/08/07 03:17:38;;;;;;;3.17;2.15;;;22.20;99.90;;;;;;5074003;28;20115;-76
2021/08/07 03:20:05;;;;;;;2.72;2.38;;;22.20;99.90;;;;;;5055905;28;20024;-76
2021/08/07 03:22:31;;;;;;;1.92;1.83;;;22.20;99.90;;;;;;5073773;28;20391;-76
2021/08/07 03:24:57;;;;;;;3.35;1.98;;;22.20;99.90;;;;;;5073413;28;20020;-76
2021/08/07 03:27:23;;;;;;;2.55;2.15;;;22.20;99.90;;;;;;5055315;28;20476;-76
2021/08/07 03:29:49;;;;;;;3.65;1.77;;;22.20;99.90;;;;;;5073616;28;20033;-76
2021/08/07 03:32:14;;;;;;;3.10;2.30;;;22.30;99.90;;;;;;5073859;28;20031;-76
2021/08/07 03:34:40;;;;;;;4.60;2.05;;;22.30;99.90;;;;;;5073237;28;20024;-76
2021/08/07 03:37:06;;;;;;;2.08;1.88;;;22.30;99.90;;;;;;5073177;28;20102;-76
2021/08/07 03:39:32;;;;;;;2.25;1.90;;;22.30;99.90;;;;;;5072988;28;20099;-76
2021/08/07 03:41:57;;;;;;;8.18;2.13;;;22.30;99.90;;;;;;5055749;28;20024;-76
2021/08/07 03:44:23;;;;;;;2.78;2.13;;;22.30;99.90;;;;;;5054983;28;20035;-76
2021/08/07 03:46:49;;;;;;;3.75;1.83;;;22.30;99.90;;;;;;5073067;28;20062;-76
2021/08/07 03:49:15;;;;;;;3.05;2.13;;;22.30;99.90;;;;;;5073311;28;20067;-76
2021/08/07 03:51:40;;;;;;;2.15;1.90;;;22.30;99.90;;;;;;5073556;28;20027;-76
2021/08/07 03:54:06;;;;;;;3.05;1.90;;;22.30;99.90;;;;;;5072601;28;20102;-76
2021/08/07 03:56:32;;;;;;;3.53;2.22;;;22.30;99.90;;;;;;5073192;28;20036;-76
2021/08/07 03:58:57;;;;;;;2.00;1.88;;;22.30;99.90;;;;;;5071441;28;20035;-76
2021/08/07 04:01:23;;;;;;;2.60;2.40;;;22.30;99.90;;;;;;5072378;28;20028;-76
2021/08/07 04:03:49;;;;;;;3.85;2.38;;;22.30;99.90;;;;;;5053862;28;20040;-76
2021/08/07 04:06:15;;;;;;;3.03;2.35;;;22.40;99.90;;;;;;5072205;28;20013;-76
2021/08/07 04:08:40;;;;;;;4.47;2.53;;;22.30;99.90;;;;;;5071728;28;20024;-76
2021/08/07 04:11:06;;;;;;;2.28;2.15;;;22.40;99.90;;;;;;5072310;28;20020;-76
2021/08/07 04:13:32;;;;;;;2.38;1.65;;;22.40;99.90;;;;;;5065106;28;20063;-76
2021/08/07 04:15:57;;;;;;;4.43;2.25;;;22.40;99.90;;;;;;5071258;28;20047;-76
2021/08/07 04:18:23;;;;;;;3.35;2.22;;;22.40;99.90;;;;;;5072583;28;20040;-76
2021/08/07 04:20:49;;;;;;;2.63;2.42;;;22.40;99.90;;;;;;5072928;28;20507;-76
2021/08/07 04:23:14;;;;;;;2.47;2.38;;;22.40;99.90;;;;;;5074297;22;20060;-76
2021/08/07 04:25:40;;;;;;;5.22;2.42;;;22.40;99.90;;;;;;5072798;28;20058;-76
2021/08/07 04:28:07;;;;;;;6.97;2.80;;;22.40;99.90;;;;;;5073148;28;20036;-76
2021/08/07 04:30:32;;;;;;;7.30;2.30;;;22.40;99.90;;;;;;5054973;28;20036;-76
2021/08/07 04:32:58;;;;;;;5.43;2.13;;;22.40;99.90;;;;;;5073006;28;20434;-76
2021/08/07 04:35:24;;;;;;;2.92;2.10;;;22.30;99.90;;;;;;5066833;28;20020;-76
2021/08/07 04:37:51;;;;;;;2.92;2.72;;;22.30;99.90;;;;;;5034784;28;20369;-76
2021/08/07 04:40:19;;;;;;;2.97;2.28;;;22.40;99.90;;;;;;5034643;28;20071;-76
2021/08/07 04:42:45;;;;;;;6.40;2.22;;;22.40;99.90;;;;;;5053802;28;20528;-76
2021/08/07 04:45:12;;;;;;;4.43;2.17;;;22.30;99.90;;;;;;5072823;28;20020;-76
2021/08/07 04:47:57;;;;;;;2.53;2.38;;;22.30;99.90;;;;;;5066438;28;20434;-76
2021/08/07 04:50:24;;;;;;;2.90;2.38;;;22.40;99.90;;;;;;5034540;28;20032;-77
2021/08/07 04:52:51;;;;;;;2.28;1.92;;;22.40;99.90;;;;;;5052737;28;20441;-76
2021/08/07 04:55:16;;;;;;;2.25;2.05;;;22.30;99.90;;;;;;5052638;28;20029;-76
2021/08/07 04:57:42;;;;;;;2.42;2.22;;;22.30;99.90;;;;;;5034429;28;20029;-76
2021/08/07 05:00:08;;;;;;;3.00;2.03;;;22.40;99.90;;;;;;5052558;28;20495;-77
2021/08/07 05:02:34;;;;;;;3.67;2.17;;;22.40;99.90;;;;;;5052501;28;20029;-76
2021/08/07 05:05:00;;;;;;;2.33;2.05;;;22.40;99.90;;;;;;5055310;28;20151;-76
2021/08/07 05:07:28;;;;;;;5.38;2.33;;;22.40;99.90;;;;;;5056746;28;20064;-76
2021/08/07 05:09:54;;;;;;;2.75;1.90;;;22.40;99.90;;;;;;5038408;28;20518;-76
2021/08/07 05:12:21;;;;;;;2.08;1.98;;;22.40;99.90;;;;;;5038430;28;20021;-76
2021/08/07 05:14:46;;;;;;;1.83;1.73;;;22.40;99.90;;;;;;5074222;28;20052;-76
2021/08/07 05:17:12;;;;;;;1.98;1.88;;;22.40;99.90;;;;;;5076164;28;20467;-76
2021/08/07 05:19:38;;;;;;;2.60;2.10;;;22.40;99.90;;;;;;5076596;28;20027;-76
2021/08/07 05:22:03;;;;;;;4.50;2.22;;;22.40;99.90;;;;;;5076028;28;20464;-76
2021/08/07 05:24:29;;;;;;;2.35;2.15;;;22.40;99.90;;;;;;5075265;28;20040;-76
2021/08/07 05:26:55;;;;;;;2.75;2.05;;;22.40;99.90;;;;;;5076039;28;20017;-76
2021/08/07 05:29:20;;;;;;;2.50;2.30;;;22.40;99.90;;;;;;5057883;28;20059;-76
2021/08/07 05:31:46;;;;;;;3.25;2.30;;;22.50;99.90;;;;;;5075985;28;20017;-76
2021/08/07 05:34:12;;;;;;;3.00;2.05;;;22.50;99.90;;;;;;5075919;28;20039;-76
2021/08/07 05:36:37;;;;;;;2.17;2.08;;;22.50;99.90;;;;;;5075405;28;20021;-76
2021/08/07 05:39:03;;;;;;;2.17;2.00;;;22.50;99.90;;;;;;5075174;28;20140;-76
2021/08/07 05:41:29;;;;;;;2.20;2.00;;;22.50;99.90;;;;;;5075900;28;20031;-76
2021/08/07 05:43:55;;;;;;;2.30;2.10;;;22.50;99.90;;;;;;5057729;28;20102;-76
2021/08/07 05:46:20;;;;;;;3.28;2.15;;;22.50;99.90;;;;;;5075946;28;20090;-76
2021/08/07 05:48:49;;;;;;;2.35;2.15;;;22.50;99.90;;;;;;5075092;28;20056;-76
2021/08/07 05:51:14;;;;;;;4.45;2.70;;;22.50;99.90;;;;;;5075683;28;20020;-76
2021/08/07 05:53:40;;;;;;;2.33;2.20;;;22.60;99.90;;;;;;5057685;28;20398;-76
2021/08/07 05:56:06;;;;;;;2.40;2.20;;;22.60;99.90;;;;;;5075298;28;20028;-76
2021/08/07 05:58:37;;;;;;;2.85;2.30;;;22.60;99.90;;;;;;5075612;28;20054;-76
2021/08/07 06:01:06;;;;;;;1.88;1.77;;;22.60;99.90;;;;;;5057333;28;20124;-76
2021/08/07 06:03:32;;;;;;;2.72;2.25;;;22.70;99.90;;;;;;5075549;28;20520;-76
2021/08/07 06:05:58;;;;;;;4.13;2.65;;;22.70;99.90;;;;;;5075116;28;20119;-76
2021/08/07 06:08:24;;;;;;;1.88;1.77;;;22.70;99.90;;;;;;5045655;28;20151;-76
2021/08/07 06:10:50;;;;;;;2.38;2.17;;;22.70;99.90;;;;;;5057079;28;20027;-76
2021/08/07 06:13:16;;;;;;;4.28;2.25;;;22.60;99.90;;;;;;5070047;28;20024;-76
2021/08/07 06:15:42;;;;;;;2.97;2.33;;;22.70;99.90;;;;;;5053744;28;20463;-76
2021/08/07 06:18:08;;;;;;;3.10;2.47;;;22.70;99.90;;;;;;5075099;28;20482;-76
2021/08/07 06:20:34;;;;;;;2.45;2.25;;;22.80;99.90;;;;;;5075003;28;20044;-76
2021/08/07 06:22:59;;;;;;;6.40;2.33;;;22.80;99.90;;;;;;5074220;28;20041;-76
2021/08/07 06:25:25;;;;;;;9.20;2.45;;;22.90;99.90;;;;;;5075117;28;20024;-76
2021/08/07 06:27:54;;;;;;;2.90;2.20;;;22.90;99.90;;;;;;5056255;28;20143;-76
2021/08/07 06:30:22;;;;;;;3.60;2.40;;;23.00;99.90;;;;;;5075011;28;20021;-76
2021/08/07 06:32:48;;;;;;;1.83;1.73;;;23.00;99.90;;;;;;5065729;28;20036;-76
2021/08/07 06:35:14;;;;;;;2.80;2.28;;;23.10;99.90;;;;;;5055034;28;20032;-76
2021/08/07 06:37:40;;;;;;;2.38;2.08;;;23.10;99.90;;;;;;5054669;28;20029;-76
2021/08/07 06:40:07;;;;;;;2.05;1.90;;;23.10;99.90;;;;;;5054584;28;20032;-76
2021/08/07 06:42:32;;;;;;;7.07;2.42;;;23.20;99.90;;;;;;5065126;28;20058;-76
2021/08/07 06:44:58;;;;;;;2.15;2.05;;;23.20;99.90;;;;;;5074505;28;20108;-76
2021/08/07 06:47:24;;;;;;;2.40;2.13;;;23.30;99.90;;;;;;5056402;28;20024;-76
2021/08/07 06:49:49;;;;;;;5.50;2.00;;;23.30;99.90;;;;;;5074427;28;20052;-76
2021/08/07 06:52:16;;;;;;;1.88;1.77;;;23.40;99.90;;;;;;5074621;28;20024;-76
2021/08/07 06:54:42;;;;;;;2.05;1.95;;;23.50;99.90;;;;;;5073506;28;20052;-76
2021/08/07 06:57:07;;;;;;;2.85;1.88;;;23.50;99.90;;;;;;5073991;28;20514;-76
2021/08/07 06:59:33;;;;;;;6.68;2.05;;;23.60;99.90;;;;;;5055700;28;20111;-76
2021/08/07 07:01:59;;;;;;;8.95;2.42;;;23.60;99.90;;;;;;5073861;28;20039;-76
2021/08/07 07:04:27;;;;;;;2.53;2.42;;;23.70;99.90;;;;;;5074246;28;20032;-76
2021/08/07 07:06:52;;;;;;;3.33;2.30;;;23.70;99.90;;;;;;5056384;28;20033;-76
2021/08/07 07:09:18;;;;;;;4.90;2.47;;;23.80;99.90;;;;;;5072722;28;20021;-76
2021/08/07 07:11:44;;;;;;;4.00;2.70;;;23.80;99.90;;;;;;5073478;28;20183;-76
2021/08/07 07:14:09;;;;;;;7.25;2.22;;;24.00;99.90;;;;;;5073473;28;20039;-76
2021/08/07 07:16:35;;;;;;;3.95;2.30;;;24.00;99.90;;;;;;5073869;28;20033;-76
2021/08/07 07:19:01;;;;;;;4.78;2.28;;;24.20;99.90;;;;;;5073665;28;20028;-76
2021/08/07 07:21:27;;;;;;;2.92;2.72;;;24.20;99.90;;;;;;5073661;28;20116;-76
2021/08/07 07:23:52;;;;;;;5.30;2.40;;;24.30;99.90;;;;;;5073566;28;20051;-76
2021/08/07 07:26:18;;;;;;;2.47;2.22;;;24.40;99.90;;;;;;5073842;28;20052;-76
2021/08/07 07:28:44;;;;;;;3.78;2.55;;;24.40;99.90;;;;;;5072510;28;20074;-76
2021/08/07 07:31:10;;;;;;;3.42;2.85;;;24.50;99.90;;;;;;5055657;28;20029;-76
2021/08/07 07:33:35;;;;;;;2.97;2.78;;;24.50;99.90;;;;;;5073472;28;20361;-76
2021/08/07 07:36:01;;;;;;;13.23;2.90;;;24.60;99.90;;;;;;5073371;28;20067;-76
2021/08/07 07:38:27;;;;;;;4.07;3.10;;;24.60;99.90;;;;;;5073305;28;20064;-76
2021/08/07 07:40:54;;;;;;;5.82;3.20;;;24.60;99.90;;;;;;5064189;28;20033;-76
2021/08/07 07:43:21;;;;;;;4.13;2.90;;;24.60;99.90;;;;;;5055065;28;20017;-76
2021/08/07 07:45:47;;;;;;;3.63;3.33;;;24.60;99.90;;;;;;5055063;28;20028;-76
2021/08/07 07:48:12;;;;;;;4.32;3.10;;;24.60;99.90;;;;;;5073528;28;20028;-76
2021/08/07 07:50:39;;;;;;;4.55;3.45;;;24.60;99.90;;;;;;5049812;28;20383;-76
2021/08/07 07:53:04;;;;;;;4.15;3.38;;;24.60;99.90;;;;;;5058183;28;20013;-76
2021/08/07 07:55:30;;;;;;;4.43;3.67;;;24.70;99.90;;;;;;5069253;28;20032;-76
2021/08/07 07:57:58;;;;;;;4.97;3.85;;;24.80;99.90;;;;;;5043848;28;20431;-76
2021/08/07 08:00:30;;;;;;;5.45;3.13;;;24.80;99.90;;;;;;5090087;27;20435;-75
2021/08/07 08:02:56;;;;;;;5.72;3.08;;;24.80;99.90;;;;;;5073212;28;20017;-75
2021/08/07 08:05:22;;;;;;;7.05;2.72;;;24.80;99.90;;;;;;5078437;28;20009;-75
2021/08/07 08:07:47;;;;;;;6.00;2.78;;;24.80;99.90;;;;;;5077572;28;20440;-76
2021/08/07 08:10:15;;;;;;;2.60;2.40;;;24.80;99.90;;;;;;5081529;28;20483;-76
2021/08/07 08:12:41;;;;;;;3.70;3.25;;;24.90;99.90;;;;;;5069964;28;20059;-76
2021/08/07 08:15:07;;;;;;;5.65;2.92;;;24.90;99.90;;;;;;5087869;28;20025;-76
2021/08/07 08:17:34;;;;;;;3.40;3.17;;;24.90;99.90;;;;;;5083785;28;20130;-76
2021/08/07 08:20:00;;;;;;;5.13;3.00;;;25.00;99.90;;;;;;5089205;28;20078;-76
2021/08/07 08:22:26;;;;;;;3.78;2.78;;;25.00;99.90;;;;;;5090082;28;20021;-76
2021/08/07 08:24:52;;;;;;;8.30;2.85;;;25.10;99.90;;;;;;5088943;28;20024;-76
2021/08/07 08:27:20;;;;;;;3.38;3.08;;;25.10;99.90;;;;;;5090194;28;20025;-76
2021/08/07 08:29:47;;;;;;;3.92;2.83;;;25.20;99.90;;;;;;5090133;28;20214;-76
2021/08/07 08:32:13;;;;;;;6.00;3.40;;;25.30;99.90;;;;;;5089999;28;20036;-76
2021/08/07 08:34:39;;;;;;;3.58;2.75;;;25.30;99.90;;;;;;5090038;28;20366;-76
2021/08/07 08:37:04;;;;;;;8.43;3.55;;;25.40;99.90;;;;;;5089844;28;20032;-76
2021/08/07 08:39:30;;;;;;;2.95;2.55;;;25.40;99.90;;;;;;5071078;28;20021;-76
2021/08/07 08:41:56;;;;;;;3.42;2.58;;;25.50;99.90;;;;;;5068489;28;20025;-76
2021/08/07 08:44:22;;;;;;;3.00;2.75;;;25.50;99.90;;;;;;5069138;28;20009;-76
2021/08/07 08:46:48;;;;;;;6.20;2.70;;;25.50;99.80;;;;;;5067967;28;20367;-76
2021/08/07 08:49:17;;;;;;;3.92;2.40;;;25.60;99.20;;;;;;5069035;28;20150;-76
2021/08/07 08:51:48;;;;;;;4.63;3.08;;;25.70;99.60;;;;;;5069556;28;20047;-76
2021/08/07 08:54:16;;;;;;;4.65;2.20;;;25.80;99.50;;;;;;5069245;28;20104;-76
2021/08/07 08:56:46;;;;;;;7.40;3.05;;;25.90;99.20;;;;;;5069210;28;20025;-76
2021/08/07 08:59:12;;;;;;;2.78;2.30;;;25.90;99.90;;;;;;5066728;28;20072;-76
2021/08/07 09:01:38;;;;;;;4.28;2.88;;;26.00;98.20;;;;;;5068592;28;20455;-75
2021/08/07 09:04:04;;;;;;;3.45;2.92;;;26.10;97.80;;;;;;5068419;28;20070;-76
2021/08/07 09:06:34;;;;;;;3.85;2.38;;;26.10;97.60;;;;;;5068334;28;20031;-76
2021/08/07 09:09:08;;;;;;;4.72;2.42;;;26.20;97.30;;;;;;5066931;28;20077;-76
2021/08/07 09:11:36;;;;;;;4.57;2.50;;;26.20;97.30;;;;;;5059449;28;20064;-76
2021/08/07 09:14:21;;;;;;;3.60;2.20;;;26.20;96.80;;;;;;5061003;28;20104;-76
2021/08/07 09:16:59;;;;;;;2.03;1.85;;;26.20;97.10;;;;;;5055314;28;20021;-76
2021/08/07 09:19:41;;;;;;;3.92;2.47;;;26.30;97.90;;;;;;5054584;28;20025;-76
2021/08/07 09:22:12;;;;;;;3.08;2.22;;;26.40;97.30;;;;;;5055159;28;20467;-75
2021/08/07 09:25:12;;;;;;;3.30;2.38;;;26.50;97.50;;;;;;5054388;28;20467;-75
2021/08/07 09:27:40;;;;;;;3.25;2.30;;;26.60;96.50;;;;;;5053852;28;20087;-75
2021/08/07 09:30:18;;;;;;;2.00;1.80;;;26.60;96.20;;;;;;5054870;28;20025;-75
2021/08/07 09:32:45;;;;;;;2.40;2.20;;;26.60;96.40;;;;;;5055226;28;20122;-75
2021/08/07 09:35:13;;;;;;;2.28;1.80;;;26.60;96.20;;;;;;5056294;28;20029;-75
2021/08/07 09:37:39;;;;;;;2.25;2.08;;;26.60;95.90;;;;;;5065259;28;20051;-75
2021/08/07 09:40:07;;;;;;;6.07;1.80;;;26.60;96.10;;;;;;5057601;28;20645;-75
2021/08/07 09:42:48;;;;;;;2.60;1.95;;;26.50;95.00;;;;;;5035108;28;20541;-76
2021/08/07 09:45:13;;;;;;;3.67;2.08;;;26.50;94.40;;;;;;5057866;28;20074;-75
2021/08/07 09:47:54;;;;;;;3.47;2.30;;;26.60;94.90;;;;;;5056893;28;20029;-75
2021/08/07 09:50:26;;;;;;;4.20;1.70;;;26.60;94.60;;;;;;5054766;28;20029;-75
2021/08/07 09:52:52;;;;;;;1.92;1.75;;;26.60;94.20;;;;;;5068310;28;20294;-75
2021/08/07 09:55:18;;;;;;;2.15;1.95;;;26.60;94.10;;;;;;5070855;28;20036;-75
2021/08/07 09:57:44;;;;;;;1.85;1.70;;;26.60;93.40;;;;;;5072396;28;20047;-75
2021/08/07 10:00:10;;;;;;;1.90;1.80;;;26.50;93.10;;;;;;5072947;28;20051;-75
2021/08/07 10:02:37;;;;;;;2.10;2.00;;;26.50;93.30;;;;;;5062773;28;20029;-75
2021/08/07 10:05:11;;;;;;;2.65;2.13;;;26.50;94.10;;;;;;5071855;28;20025;-75
2021/08/07 10:07:37;;;;;;;11.25;2.10;;;26.50;94.00;;;;;;5055753;28;20044;-75
2021/08/07 10:10:18;;;;;;;4.43;2.45;;;26.50;94.70;;;;;;5067928;28;20056;-75
2021/08/07 10:12:47;;;;;;;3.70;2.08;;;26.60;94.70;;;;;;5068209;28;20052;-76
2021/08/07 10:15:13;;;;;;;3.53;2.20;;;26.60;94.50;;;;;;5065053;28;20032;-75
2021/08/07 10:17:39;;;;;;;2.90;2.38;;;26.60;94.70;;;;;;5066069;28;20020;-75
2021/08/07 10:20:06;;;;;;;4.13;2.17;;;26.70;95.10;;;;;;5068494;28;20032;-75
2021/08/07 10:22:32;;;;;;;2.53;2.35;;;26.90;95.00;;;;;;5073339;28;20020;-75
2021/08/07 10:25:03;;;;;;;3.03;2.78;;;26.90;95.20;;;;;;5070183;28;20020;-75
2021/08/07 10:27:32;;;;;;;6.72;2.10;;;27.00;94.10;;;;;;5055414;28;20070;-75
2021/08/07 10:30:01;;;;;;;7.88;2.35;;;27.00;94.60;;;;;;5054059;28;20032;-75
2021/08/07 10:32:28;;;;;;;2.53;2.33;;;27.00;94.90;;;;;;5054307;28;20062;-75
2021/08/07 10:34:54;;;;;;;4.72;2.47;;;27.00;93.50;;;;;;5054024;28;20059;-75
2021/08/07 10:37:21;;;;;;;2.97;2.72;;;27.20;94.00;;;;;;5054173;28;20042;-75
2021/08/07 10:39:47;;;;;;;2.53;2.17;;;27.20;94.80;;;;;;5053267;28;20044;-75
2021/08/07 10:42:17;;;;;;;4.82;2.40;;;27.20;95.00;;;;;;5052544;28;20043;-75
2021/08/07 10:44:45;;;;;;;2.67;2.47;;;27.30;93.80;;;;;;5035573;28;20018;-76
2021/08/07 10:47:12;;;;;;;3.55;2.30;;;27.40;93.20;;;;;;5032899;28;20129;-75
2021/08/07 10:49:40;;;;;;;3.00;2.60;;;27.50;95.80;;;;;;5051396;28;20560;-75
2021/08/07 10:52:21;;;;;;;7.28;2.47;;;27.60;95.00;;;;;;5052065;28;20029;-75
2021/08/07 10:54:51;;;;;;;2.33;2.23;;;27.70;93.30;;;;;;5052326;28;20504;-77
2021/08/07 10:57:44;;;;;;;2.78;2.58;;;27.70;94.00;;;;;;5052369;28;20025;-77
2021/08/07 11:00:16;;;;;;;6.82;2.42;;;27.80;94.50;;;;;;5051707;28;20557;-75
2021/08/07 11:02:43;;;;;;;4.78;2.50;;;27.90;94.00;;;;;;5053804;28;20020;-75
2021/08/07 11:05:09;;;;;;;4.82;2.60;;;28.00;92.90;;;;;;5053242;28;20025;-75
2021/08/07 11:07:36;;;;;;;4.00;2.30;;;28.10;93.00;;;;;;5055129;28;20115;-75
2021/08/07 11:10:12;;;;;;;4.78;2.45;;;28.30;95.00;;;;;;5061544;28;20169;-75
2021/08/07 11:12:42;;;;;;;2.83;2.63;;;28.30;93.70;;;;;;5066576;28;20107;-75
2021/08/07 11:15:13;;;;;;;6.07;2.40;;;28.30;91.90;;;;;;5051745;28;20544;-75
2021/08/07 11:17:42;;;;;;;2.88;2.28;;;28.40;90.20;;;;;;5070699;28;20028;-75
2021/08/07 11:20:35;;;;;;;2.95;2.40;;;28.40;91.80;;;;;;5053468;28;20029;-75
2021/08/07 11:23:00;;;;;;;2.30;2.10;;;28.50;91.10;;;;;;5056988;28;20097;-75
2021/08/07 11:25:26;;;;;;;2.70;2.50;;;28.30;90.90;;;;;;5057836;28;20080;-75
2021/08/07 11:27:55;;;;;;;4.30;2.50;;;28.30;91.30;;;;;;5059582;28;20068;-75
2021/08/07 11:30:21;;;;;;;3.05;2.20;;;28.40;90.90;;;;;;5053707;28;20044;-75
2021/08/07 11:32:56;;;;;;;2.83;2.50;;;28.40;91.30;;;;;;5051403;28;20029;-75
2021/08/07 11:35:34;;;;;;;2.58;2.38;;;28.40;91.10;;;;;;5053178;28;20104;-75
2021/08/07 11:38:09;;;;;;;3.40;2.80;;;28.30;91.20;;;;;;5052818;28;20050;-75
2021/08/07 11:40:57;;;;;;;2.50;2.30;;;28.20;90.70;;;;;;5052987;28;20035;-75
2021/08/07 11:43:26;;;;;;;2.67;2.42;;;28.20;91.30;;;;;;5044557;28;20025;-75
2021/08/07 11:45:54;;;;;;;2.55;2.40;;;28.20;92.60;;;;;;5052400;28;20103;-75
2021/08/07 11:48:30;;;;;;;2.85;2.65;;;28.30;93.10;;;;;;5069777;28;20386;-75
2021/08/07 11:50:58;;;;;;;2.42;2.28;;;28.50;94.20;;;;;;5053001;28;20051;-75
2021/08/07 11:53:26;;;;;;;2.95;2.65;;;28.70;93.50;;;;;;5052887;28;20086;-75
2021/08/07 11:56:04;;;;;;;7.10;2.70;;;28.80;92.30;;;;;;5051886;28;20018;-75
2021/08/07 11:58:32;;;;;;;2.70;2.50;;;28.80;91.10;;;;;;5052835;28;20037;-74
2021/08/07 12:01:03;;;;;;;4.53;2.60;;;28.80;90.40;;;;;;5052525;28;20386;-75
2021/08/07 12:03:43;;;;;;;3.08;2.75;;;28.80;91.20;;;;;;5053213;28;20485;-75
2021/08/07 12:06:10;;;;;;;5.68;2.83;;;28.80;91.70;;;;;;5051721;28;20386;-75
2021/08/07 12:08:37;;;;;;;3.75;2.90;;;28.80;91.00;;;;;;5062607;28;20052;-75
2021/08/07 12:11:08;;;;;;;2.75;2.50;;;28.70;91.10;;;;;;5072625;28;20032;-74
2021/08/07 12:13:50;;;;;;;5.03;2.55;;;28.90;91.50;;;;;;5064696;28;20029;-75
2021/08/07 12:16:18;;;;;;;3.60;2.50;;;28.90;92.30;;;;;;5052494;28;20628;-75
2021/08/07 12:18:53;;;;;;;2.45;2.30;;;28.90;92.80;;;;;;5052601;28;20028;-75
2021/08/07 12:21:28;;;;;;;2.50;2.30;;;29.00;92.30;;;;;;5051073;28;20017;-74
2021/08/07 12:23:56;;;;;;;2.80;2.60;;;29.10;92.00;;;;;;5051267;28;20470;-75
2021/08/07 12:26:24;;;;;;;5.50;2.83;;;29.20;92.70;;;;;;5051331;28;20387;-74
2021/08/07 12:29:03;;;;;;;2.80;2.60;;;29.30;91.40;;;;;;5052518;28;20151;-75
2021/08/07 12:31:47;;;;;;;5.50;2.90;;;29.40;90.10;;;;;;5052429;28;20029;-76
2021/08/07 12:34:21;;;;;;;3.40;2.58;;;29.50;90.20;;;;;;5051047;28;20033;-77
2021/08/07 12:37:02;;;;;;;2.35;2.15;;;29.50;91.20;;;;;;5050817;28;20428;-77
2021/08/07 12:39:36;;;;;;;3.42;2.47;;;29.50;91.30;;;;;;5052242;28;20108;-77
2021/08/07 12:42:02;;;;;;;4.53;3.05;;;29.50;92.00;;;;;;5051055;28;20021;-77
2021/08/07 12:44:28;;;;;;;3.35;2.35;;;29.50;91.00;;;;;;5052296;28;20593;-77
2021/08/07 12:46:57;;;;;;;3.85;2.58;;;29.60;90.30;;;;;;5054460;28;20025;-77
2021/08/07 12:49:43;;;;;;;6.65;2.58;;;29.70;90.00;;;;;;5054425;28;20025;-76
2021/08/07 12:52:12;;;;;;;2.70;2.50;;;29.70;89.20;;;;;;5055496;28;20021;-77
2021/08/07 12:54:38;;;;;;;3.15;2.88;;;29.80;90.30;;;;;;5054944;28;20052;-77